Time;durP1;ratioP1;P1;durP2;ratioP2;P2;SDS_P1;SDS_P2;PMS_P1;PMS_P2;Temp;Humidity;BMP_temperature;BMP_pressure;BME280_temperature;BME280_humidity;BME280_pressure;Samples;Min_cycle;Max_cycle;Signal;HPM_P1;HPM_P2
2021/03/27 00:00:00;;;;;;;5.60;4.90;;;22.50;29.80;;;;;;5028846;28;20072;-62
2021/03/27 00:02:37;;;;;;;7.20;5.35;;;22.50;29.80;;;;;;5047006;28;20135;-62
2021/03/27 00:05:20;;;;;;;6.55;5.15;;;22.50;29.80;;;;;;5045986;28;20068;-62
2021/03/27 00:08:04;;;;;;;5.35;4.85;;;22.50;29.80;;;;;;5046079;28;20135;-62
2021/03/27 00:10:53;;;;;;;6.53;5.43;;;22.50;29.80;;;;;;5046343;28;20498;-62
2021/03/27 00:13:33;;;;;;;5.70;5.13;;;22.50;29.80;;;;;;5045786;28;20129;-62
2021/03/27 00:16:17;;;;;;;6.35;5.45;;;22.50;29.80;;;;;;5045945;28;20164;-62
2021/03/27 00:19:10;;;;;;;6.63;5.53;;;22.50;29.80;;;;;;5046289;28;20060;-62
2021/03/27 00:21:43;;;;;;;6.05;5.40;;;22.50;29.80;;;;;;5028608;28;20096;-62
2021/03/27 00:24:38;;;;;;;5.88;5.00;;;22.50;29.80;;;;;;5046609;28;20128;-62
2021/03/27 00:27:16;;;;;;;5.65;5.07;;;22.50;29.80;;;;;;5045751;28;20053;-63
2021/03/27 00:29:46;;;;;;;6.65;5.35;;;22.50;29.90;;;;;;5045701;28;20075;-62
2021/03/27 00:32:21;;;;;;;6.03;5.15;;;22.50;29.80;;;;;;5046351;28;20559;-62
2021/03/27 00:34:56;;;;;;;7.35;6.07;;;22.50;29.80;;;;;;5046412;28;20045;-62
2021/03/27 00:37:27;;;;;;;6.30;5.10;;;22.40;29.80;;;;;;5046689;28;20049;-62
2021/03/27 00:40:01;;;;;;;5.57;4.75;;;22.40;29.80;;;;;;5046173;28;20520;-62
2021/03/27 00:42:31;;;;;;;5.75;5.05;;;22.40;29.80;;;;;;5046034;28;20138;-62
2021/03/27 00:45:18;;;;;;;5.50;4.90;;;22.40;29.80;;;;;;5045829;28;20079;-62
2021/03/27 00:47:54;;;;;;;5.75;4.78;;;22.40;29.80;;;;;;5045767;28;20041;-62
2021/03/27 00:50:35;;;;;;;6.07;5.00;;;22.40;29.90;;;;;;5045856;28;20114;-62
2021/03/27 00:53:16;;;;;;;6.03;5.10;;;22.40;29.90;;;;;;5046441;28;20360;-62
2021/03/27 00:55:51;;;;;;;5.55;4.90;;;22.40;29.90;;;;;;5046254;28;20052;-62
2021/03/27 00:58:40;;;;;;;5.53;4.90;;;22.40;29.90;;;;;;5046157;28;20041;-62
2021/03/27 01:01:09;;;;;;;5.10;4.28;;;22.40;29.80;;;;;;5045983;28;20422;-62
2021/03/27 01:03:43;;;;;;;7.10;4.97;;;22.40;29.80;;;;;;5046001;28;20045;-62
2021/03/27 01:06:15;;;;;;;6.78;5.60;;;22.40;29.80;;;;;;5046267;28;20124;-62
2021/03/27 01:08:46;;;;;;;5.50;4.60;;;22.40;29.80;;;;;;5045140;28;20137;-62
2021/03/27 01:11:20;;;;;;;5.82;5.25;;;22.40;29.80;;;;;;5045979;28;20057;-62
2021/03/27 01:13:57;;;;;;;5.43;4.60;;;22.40;29.90;;;;;;5044969;28;20045;-62
2021/03/27 01:16:37;;;;;;;5.13;4.63;;;22.40;29.90;;;;;;5045524;28;20052;-62
2021/03/27 01:19:39;;;;;;;5.60;4.50;;;22.40;29.90;;;;;;5044110;28;20044;-63
2021/03/27 01:22:09;;;;;;;5.35;4.80;;;22.40;29.90;;;;;;5045578;28;20072;-62
2021/03/27 01:24:36;;;;;;;5.72;4.65;;;22.40;29.90;;;;;;5045642;28;20080;-62
2021/03/27 01:27:21;;;;;;;5.97;4.90;;;22.40;29.90;;;;;;5027868;28;20214;-62
2021/03/27 01:30:09;;;;;;;5.47;4.78;;;22.40;29.90;;;;;;5045311;28;20045;-62
2021/03/27 01:32:53;;;;;;;6.43;5.15;;;22.40;29.90;;;;;;5045134;28;20113;-62
2021/03/27 01:35:36;;;;;;;5.82;4.72;;;22.40;29.90;;;;;;5045533;28;20106;-63
2021/03/27 01:38:12;;;;;;;5.25;4.70;;;22.40;29.90;;;;;;5027154;28;20048;-63
2021/03/27 01:40:58;;;;;;;5.20;4.70;;;22.40;29.90;;;;;;5044751;28;20056;-63
2021/03/27 01:43:54;;;;;;;5.43;4.93;;;22.40;30.00;;;;;;5045230;28;20047;-65
2021/03/27 01:46:51;;;;;;;5.47;4.90;;;22.30;30.00;;;;;;5044832;28;20651;-65
2021/03/27 01:49:33;;;;;;;5.22;4.72;;;22.30;30.00;;;;;;5029889;28;20055;-63
2021/03/27 01:52:33;;;;;;;4.85;4.40;;;22.30;30.00;;;;;;5045291;28;20071;-63
2021/03/27 01:55:30;;;;;;;5.18;4.68;;;22.30;30.00;;;;;;5044806;28;20498;-63
2021/03/27 01:58:28;;;;;;;4.90;4.40;;;22.30;30.00;;;;;;5045224;28;20052;-63
2021/03/27 02:01:11;;;;;;;5.75;4.78;;;22.30;30.00;;;;;;5044805;28;20049;-63
2021/03/27 02:03:49;;;;;;;4.97;4.43;;;22.30;30.00;;;;;;5044550;28;20051;-62
2021/03/27 02:06:34;;;;;;;5.32;4.80;;;22.30;30.00;;;;;;5044956;28;20095;-63
2021/03/27 02:09:31;;;;;;;5.00;4.50;;;22.30;30.00;;;;;;5044207;28;20076;-62
2021/03/27 02:12:30;;;;;;;5.80;5.20;;;22.30;30.00;;;;;;5031964;28;20053;-62
2021/03/27 02:15:12;;;;;;;6.72;4.95;;;22.30;30.00;;;;;;5043963;28;20049;-63
2021/03/27 02:17:48;;;;;;;4.53;4.13;;;22.30;30.00;;;;;;5044864;28;20080;-63
2021/03/27 02:20:54;;;;;;;5.35;4.80;;;22.20;30.00;;;;;;5043686;28;20074;-62
2021/03/27 02:23:39;;;;;;;4.90;4.40;;;22.30;30.00;;;;;;5044346;28;20617;-63
2021/03/27 02:26:31;;;;;;;5.15;4.65;;;22.30;30.00;;;;;;5043659;28;20045;-62
2021/03/27 02:29:32;;;;;;;5.78;4.47;;;22.30;30.00;;;;;;5044295;28;20536;-62
2021/03/27 02:32:26;;;;;;;5.47;4.32;;;22.20;30.50;;;;;;5044048;28;20132;-62
2021/03/27 02:35:12;;;;;;;6.55;4.47;;;22.20;30.00;;;;;;5043540;28;20056;-63
2021/03/27 02:38:15;;;;;;;4.55;4.10;;;22.20;30.00;;;;;;5044602;28;20080;-63
2021/03/27 02:40:48;;;;;;;6.38;4.05;;;22.20;30.00;;;;;;5048043;28;20083;-62
2021/03/27 02:43:26;;;;;;;4.57;4.00;;;22.20;30.00;;;;;;5048788;28;20102;-62
2021/03/27 02:46:16;;;;;;;4.80;4.00;;;22.20;30.00;;;;;;5048115;28;20137;-62
2021/03/27 02:49:22;;;;;;;4.93;4.30;;;22.20;30.00;;;;;;5048298;28;20250;-62
2021/03/27 02:52:09;;;;;;;4.90;4.03;;;22.20;30.00;;;;;;5047614;28;20060;-63
2021/03/27 02:55:04;;;;;;;5.03;4.45;;;22.20;30.00;;;;;;5048463;28;20494;-63
2021/03/27 02:57:51;;;;;;;4.57;4.13;;;22.20;30.00;;;;;;5047365;28;20077;-63
2021/03/27 03:00:48;;;;;;;5.22;4.28;;;22.20;30.00;;;;;;5047589;28;20126;-62
2021/03/27 03:03:24;;;;;;;4.68;4.20;;;22.20;30.00;;;;;;5048465;28;20041;-62
2021/03/27 03:05:57;;;;;;;5.13;4.60;;;22.20;30.00;;;;;;5047961;28;20045;-62
2021/03/27 03:08:39;;;;;;;5.05;4.20;;;22.20;30.00;;;;;;5048045;28;20144;-63
2021/03/27 03:11:13;;;;;;;4.60;4.07;;;22.20;30.00;;;;;;5047488;28;20379;-62
2021/03/27 03:14:09;;;;;;;4.78;4.25;;;22.20;30.00;;;;;;5048042;28;20071;-62
2021/03/27 03:16:45;;;;;;;4.30;3.90;;;22.10;30.00;;;;;;5047806;28;20128;-62
2021/03/27 03:19:26;;;;;;;4.63;4.13;;;22.20;30.00;;;;;;5047843;28;20150;-62
2021/03/27 03:22:11;;;;;;;5.95;4.85;;;22.20;30.00;;;;;;5047432;28;20449;-62
2021/03/27 03:24:46;;;;;;;4.95;4.40;;;22.20;30.00;;;;;;5047636;28;20539;-62
2021/03/27 03:27:30;;;;;;;4.93;4.53;;;22.10;30.00;;;;;;5047987;28;20079;-62
2021/03/27 03:30:22;;;;;;;4.72;4.22;;;22.10;30.00;;;;;;5047532;28;20451;-62
2021/03/27 03:33:28;;;;;;;4.35;3.95;;;22.10;30.60;;;;;;5046925;28;20421;-62
2021/03/27 03:36:10;;;;;;;4.68;4.05;;;22.10;30.00;;;;;;5047272;28;20052;-62
2021/03/27 03:39:00;;;;;;;5.30;4.47;;;22.10;30.00;;;;;;5047461;28;20120;-62
2021/03/27 03:41:48;;;;;;;4.80;4.07;;;22.10;30.10;;;;;;5047013;28;20482;-62
2021/03/27 03:44:33;;;;;;;4.30;3.85;;;22.10;30.10;;;;;;5047286;28;20133;-62
2021/03/27 03:47:32;;;;;;;5.65;4.35;;;22.10;30.10;;;;;;5047234;28;20048;-62
2021/03/27 03:50:30;;;;;;;4.28;3.80;;;22.10;30.10;;;;;;5046734;28;20254;-62
2021/03/27 03:53:31;;;;;;;5.53;4.18;;;22.10;30.10;;;;;;5047367;28;20452;-62
2021/03/27 03:56:20;;;;;;;4.43;4.00;;;22.10;30.10;;;;;;5047292;28;20273;-63
2021/03/27 03:59:19;;;;;;;4.57;3.97;;;22.10;30.10;;;;;;5047268;28;20084;-63
2021/03/27 04:02:13;;;;;;;4.93;4.43;;;22.10;30.10;;;;;;5046687;28;20486;-63
2021/03/27 04:04:45;;;;;;;4.90;4.40;;;22.10;30.10;;;;;;5046009;28;20053;-63
2021/03/27 04:07:19;;;;;;;4.82;4.15;;;22.10;30.10;;;;;;5046979;28;20450;-63
2021/03/27 04:09:58;;;;;;;4.07;3.67;;;22.10;30.10;;;;;;5046736;28;20160;-62
2021/03/27 04:12:38;;;;;;;4.25;3.75;;;22.10;30.10;;;;;;5046394;28;20462;-62
2021/03/27 04:15:34;;;;;;;4.43;4.03;;;22.10;30.10;;;;;;5047044;28;20047;-62
2021/03/27 04:18:33;;;;;;;4.65;4.22;;;22.10;30.10;;;;;;5033714;28;20045;-62
2021/03/27 04:21:20;;;;;;;4.28;3.88;;;22.10;30.10;;;;;;5046226;28;20103;-62
2021/03/27 04:24:03;;;;;;;4.35;3.95;;;22.10;30.10;;;;;;5046677;28;20130;-62
2021/03/27 04:26:48;;;;;;;5.00;4.13;;;22.10;30.10;;;;;;5045683;28;20077;-62
2021/03/27 04:29:35;;;;;;;4.38;3.80;;;22.10;30.10;;;;;;5045811;28;20140;-62
2021/03/27 04:32:38;;;;;;;4.43;3.95;;;22.10;30.10;;;;;;5046165;28;20100;-62
2021/03/27 04:35:27;;;;;;;4.22;3.83;;;22.10;30.10;;;;;;5044538;28;20189;-62
2021/03/27 04:38:16;;;;;;;4.13;3.72;;;22.10;30.10;;;;;;5046449;28;20131;-62
2021/03/27 04:41:07;;;;;;;4.32;3.92;;;22.00;30.10;;;;;;5046184;28;20041;-62
2021/03/27 04:43:44;;;;;;;4.28;3.88;;;22.00;30.10;;;;;;5046556;28;20051;-62
2021/03/27 04:46:32;;;;;;;4.05;3.67;;;22.00;30.10;;;;;;5046770;28;20215;-62
2021/03/27 04:49:28;;;;;;;3.90;3.50;;;22.10;30.10;;;;;;5046358;28;20073;-62
2021/03/27 04:52:32;;;;;;;4.45;4.05;;;22.10;30.10;;;;;;5045817;28;20138;-62
2021/03/27 04:55:29;;;;;;;4.85;4.18;;;22.10;30.10;;;;;;5045744;28;20128;-62
2021/03/27 04:58:25;;;;;;;4.35;3.95;;;22.10;30.10;;;;;;5045554;28;20085;-62
2021/03/27 05:01:15;;;;;;;4.43;4.03;;;22.10;30.10;;;;;;5045695;28;20152;-63
2021/03/27 05:03:54;;;;;;;4.72;4.00;;;22.10;30.10;;;;;;5027653;28;20040;-63
2021/03/27 05:06:34;;;;;;;4.32;3.75;;;22.10;30.00;;;;;;5045724;28;20055;-63
2021/03/27 05:09:21;;;;;;;;;;;22.10;30.00;;;;;;5045723;28;20069;-63
2021/03/27 05:12:12;;;;;;;4.95;3.70;;;22.10;30.00;;;;;;5030381;28;20271;-62
2021/03/27 05:15:05;;;;;;;4.22;3.83;;;22.10;30.10;;;;;;5027081;28;20445;-62
2021/03/27 05:17:59;;;;;;;5.72;4.55;;;22.10;30.00;;;;;;5045723;28;20052;-62
2021/03/27 05:20:33;;;;;;;3.97;3.58;;;22.10;30.00;;;;;;5032565;28;20125;-62
2021/03/27 05:23:18;;;;;;;4.70;4.00;;;22.10;30.00;;;;;;5045516;28;20484;-62
2021/03/27 05:26:10;;;;;;;4.32;3.78;;;22.10;30.00;;;;;;5045156;28;20083;-64
2021/03/27 05:29:04;;;;;;;4.18;3.78;;;22.20;30.00;;;;;;5044550;28;20077;-62
2021/03/27 05:31:50;;;;;;;4.35;3.95;;;22.20;30.00;;;;;;5047626;28;20103;-62
2021/03/27 05:34:30;;;;;;;3.60;3.30;;;22.20;30.00;;;;;;5047242;28;20045;-62
2021/03/27 05:37:36;;;;;;;3.53;3.22;;;22.20;30.00;;;;;;5047067;28;20501;-62
2021/03/27 05:40:42;;;;;;;3.88;3.50;;;22.30;30.00;;;;;;5046057;28;20055;-62
2021/03/27 05:43:45;;;;;;;4.35;3.95;;;22.30;30.00;;;;;;5046987;28;20133;-62
2021/03/27 05:46:52;;;;;;;4.75;3.67;;;22.30;30.00;;;;;;5046793;28;20076;-62
2021/03/27 05:49:51;;;;;;;4.43;4.03;;;22.30;30.00;;;;;;5034702;28;20045;-62
2021/03/27 05:52:57;;;;;;;4.03;3.63;;;22.40;30.00;;;;;;5046235;28;20053;-62
2021/03/27 05:56:03;;;;;;;4.18;3.78;;;22.40;30.00;;;;;;5045396;28;20049;-62
2021/03/27 05:59:10;;;;;;;4.22;3.65;;;22.30;30.00;;;;;;5033053;28;20108;-62
2021/03/27 06:01:52;;;;;;;3.97;3.53;;;22.40;30.00;;;;;;5043650;28;20049;-62
2021/03/27 06:04:48;;;;;;;4.10;3.65;;;22.30;30.40;;;;;;5044467;28;20505;-62
2021/03/27 06:07:43;;;;;;;4.50;3.65;;;22.40;29.90;;;;;;5029851;28;20459;-62
2021/03/27 06:10:29;;;;;;;4.07;3.67;;;22.40;29.90;;;;;;5043170;28;20501;-62
2021/03/27 06:13:25;;;;;;;4.20;3.78;;;22.40;29.80;;;;;;5043722;28;20049;-62
2021/03/27 06:16:19;;;;;;;3.80;3.42;;;22.50;29.80;;;;;;5044871;28;20478;-62
2021/03/27 06:19:25;;;;;;;5.18;3.67;;;22.50;29.80;;;;;;5044277;28;20037;-62
2021/03/27 06:22:29;;;;;;;4.35;3.85;;;22.60;29.70;;;;;;5045005;28;20308;-62
2021/03/27 06:25:36;;;;;;;4.78;3.88;;;22.60;29.60;;;;;;5030949;28;20489;-62
2021/03/27 06:28:23;;;;;;;4.15;3.75;;;22.70;29.60;;;;;;5044449;28;20077;-62
2021/03/27 06:31:19;;;;;;;4.78;4.00;;;22.70;29.50;;;;;;5044831;28;20124;-62
2021/03/27 06:34:15;;;;;;;4.63;4.07;;;22.80;29.50;;;;;;5044225;28;20052;-62
2021/03/27 06:37:21;;;;;;;4.10;3.38;;;22.80;29.50;;;;;;5044610;28;20132;-62
2021/03/27 06:40:11;;;;;;;4.30;3.35;;;22.90;29.40;;;;;;5032501;28;20218;-62
2021/03/27 06:43:18;;;;;;;3.67;3.35;;;23.00;29.40;;;;;;5044592;28;20597;-62
2021/03/27 06:46:20;;;;;;;4.10;3.70;;;23.10;29.30;;;;;;5031879;28;20686;-62
2021/03/27 06:49:27;;;;;;;3.60;3.30;;;23.20;29.20;;;;;;5044270;28;20049;-62
2021/03/27 06:52:30;;;;;;;3.42;3.10;;;23.20;29.10;;;;;;5043433;28;20187;-62
2021/03/27 06:55:28;;;;;;;3.60;3.30;;;23.30;29.00;;;;;;5044531;28;20075;-62
2021/03/27 06:58:34;;;;;;;3.72;3.35;;;23.40;29.10;;;;;;5026744;28;20465;-62
2021/03/27 07:01:37;;;;;;;4.18;3.15;;;23.50;28.90;;;;;;5044426;28;20057;-62
2021/03/27 07:04:43;;;;;;;3.92;3.47;;;23.50;28.90;;;;;;5044166;28;20045;-62
2021/03/27 07:07:51;;;;;;;3.67;3.33;;;23.60;28.80;;;;;;5042777;28;20052;-62
2021/03/27 07:10:57;;;;;;;3.83;3.40;;;23.70;28.70;;;;;;5032328;28;20045;-62
2021/03/27 07:13:59;;;;;;;4.03;3.63;;;23.80;28.80;;;;;;5032379;28;20457;-62
2021/03/27 07:16:50;;;;;;;3.70;3.30;;;23.90;28.60;;;;;;5043919;28;20290;-63
2021/03/27 07:19:57;;;;;;;3.60;2.92;;;23.90;28.60;;;;;;5026240;28;20049;-62
2021/03/27 07:23:15;;;;;;;3.35;3.05;;;24.00;28.50;;;;;;5044217;28;20505;-62
2021/03/27 07:26:12;;;;;;;3.83;2.95;;;24.10;28.50;;;;;;5031012;28;20402;-62
2021/03/27 07:28:54;;;;;;;2.95;2.75;;;24.10;28.40;;;;;;5047506;28;20041;-62
2021/03/27 07:31:42;;;;;;;3.60;3.30;;;24.20;28.40;;;;;;5047229;28;20559;-62
2021/03/27 07:34:35;;;;;;;3.22;2.90;;;24.20;28.30;;;;;;5047437;28;20497;-63
2021/03/27 07:37:38;;;;;;;3.35;3.05;;;24.30;28.30;;;;;;5048103;28;20056;-62
2021/03/27 07:40:42;;;;;;;3.33;3.03;;;24.40;28.20;;;;;;5046710;28;20517;-62
2021/03/27 07:43:48;;;;;;;2.47;2.33;;;24.40;28.10;;;;;;5049126;28;20236;-63
2021/03/27 07:46:55;;;;;;;2.97;2.78;;;24.50;28.40;;;;;;5035356;28;20465;-62
2021/03/27 07:50:01;;;;;;;3.30;2.70;;;24.50;28.00;;;;;;5051263;28;20049;-62
2021/03/27 07:52:58;;;;;;;3.20;2.88;;;24.60;28.00;;;;;;5046469;28;20139;-62
2021/03/27 07:56:05;;;;;;;3.20;2.65;;;24.70;27.90;;;;;;5046689;28;20059;-63
2021/03/27 07:58:56;;;;;;;3.13;2.75;;;24.70;27.90;;;;;;5045599;28;20573;-62
2021/03/27 08:01:52;;;;;;;2.97;2.78;;;24.80;27.90;;;;;;5045956;28;20385;-62
2021/03/27 08:04:59;;;;;;;2.38;2.17;;;24.90;27.80;;;;;;5033905;28;20123;-62
2021/03/27 08:08:01;;;;;;;2.58;2.38;;;24.90;27.70;;;;;;5031982;28;20087;-62
2021/03/27 08:11:07;;;;;;;2.38;2.17;;;24.90;27.60;;;;;;5046144;28;20552;-62
2021/03/27 08:14:02;;;;;;;2.53;2.33;;;25.00;27.60;;;;;;5035058;28;20049;-62
2021/03/27 08:16:49;;;;;;;2.78;2.58;;;25.00;27.60;;;;;;5046174;28;20128;-62
2021/03/27 08:19:53;;;;;;;2.55;2.35;;;25.10;27.50;;;;;;5047397;28;20045;-62
2021/03/27 08:22:59;;;;;;;3.13;2.63;;;25.10;27.40;;;;;;5046967;28;20136;-62
2021/03/27 08:26:05;;;;;;;3.28;2.95;;;25.20;27.40;;;;;;5045882;28;20472;-62
2021/03/27 08:28:57;;;;;;;2.88;2.58;;;25.30;27.40;;;;;;5045818;28;20076;-62
2021/03/27 08:32:04;;;;;;;2.88;2.45;;;25.40;27.40;;;;;;5046136;28;20060;-62
2021/03/27 08:35:06;;;;;;;3.00;2.65;;;25.40;27.30;;;;;;5046295;28;20560;-62
2021/03/27 08:38:11;;;;;;;3.05;2.30;;;25.50;27.30;;;;;;5045789;28;20080;-62
2021/03/27 08:41:17;;;;;;;3.97;2.58;;;25.50;27.20;;;;;;5045983;28;20088;-62
2021/03/27 08:44:14;;;;;;;2.63;2.40;;;25.60;27.20;;;;;;5035185;28;20142;-62
2021/03/27 08:46:59;;;;;;;2.42;2.03;;;25.60;27.10;;;;;;5045941;28;20076;-62
2021/03/27 08:49:47;;;;;;;2.92;2.65;;;25.70;27.10;;;;;;5046251;28;20478;-62
2021/03/27 08:52:50;;;;;;;2.05;1.95;;;25.70;27.10;;;;;;5045828;28;20280;-62
2021/03/27 08:55:41;;;;;;;2.17;2.08;;;25.70;27.00;;;;;;5046305;28;20052;-62
2021/03/27 08:58:40;;;;;;;2.10;2.00;;;25.70;27.00;;;;;;5032232;28;20037;-62
2021/03/27 09:01:36;;;;;;;2.42;2.22;;;25.70;26.90;;;;;;5045875;28;20084;-62
2021/03/27 09:04:39;;;;;;;3.03;2.65;;;25.80;27.00;;;;;;5045933;28;20076;-62
2021/03/27 09:07:29;;;;;;;2.60;2.40;;;25.80;26.90;;;;;;5045438;28;20448;-62
2021/03/27 09:10:32;;;;;;;2.88;2.50;;;25.80;26.90;;;;;;5045245;28;20513;-62
2021/03/27 09:13:38;;;;;;;2.72;2.53;;;25.80;26.90;;;;;;5046001;28;20084;-62
2021/03/27 09:16:32;;;;;;;1.98;1.83;;;25.90;26.90;;;;;;5045459;28;20418;-62
2021/03/27 09:19:16;;;;;;;2.45;2.15;;;25.90;26.80;;;;;;5027845;28;20045;-62
2021/03/27 09:22:22;;;;;;;2.35;1.92;;;26.00;26.80;;;;;;5045030;28;20044;-62
2021/03/27 09:25:06;;;;;;;2.10;2.00;;;26.00;26.70;;;;;;5045339;28;20091;-62
2021/03/27 09:27:55;;;;;;;2.42;2.22;;;26.10;26.80;;;;;;5045715;28;20049;-62
2021/03/27 09:30:49;;;;;;;2.03;1.92;;;26.10;26.70;;;;;;5045521;28;20124;-61
2021/03/27 09:33:27;;;;;;;2.15;2.05;;;26.10;26.70;;;;;;5045200;28;20106;-61
2021/03/27 09:36:07;;;;;;;2.10;2.00;;;26.20;26.70;;;;;;5045575;28;20417;-62
2021/03/27 09:38:57;;;;;;;1.80;1.70;;;26.20;26.70;;;;;;5045732;28;20135;-62
2021/03/27 09:41:51;;;;;;;2.22;2.03;;;26.20;26.60;;;;;;5027374;28;20053;-62
2021/03/27 09:44:43;;;;;;;1.92;1.83;;;26.20;26.60;;;;;;5045864;28;20076;-62
2021/03/27 09:47:49;;;;;;;2.13;2.00;;;26.20;26.60;;;;;;5044712;28;20080;-62
2021/03/27 09:50:41;;;;;;;1.88;1.77;;;26.20;26.60;;;;;;5030338;28;20429;-62
2021/03/27 09:53:31;;;;;;;1.92;1.83;;;26.20;26.60;;;;;;5044834;28;20493;-62
2021/03/27 09:56:07;;;;;;;2.22;2.05;;;26.20;26.70;;;;;;5044925;28;20045;-62
2021/03/27 09:59:06;;;;;;;2.10;1.90;;;26.20;26.70;;;;;;5044553;28;20056;-62
2021/03/27 10:01:51;;;;;;;2.13;2.00;;;26.10;26.70;;;;;;5044875;28;20060;-63
2021/03/27 10:04:38;;;;;;;1.95;1.83;;;26.10;26.70;;;;;;5044393;28;20095;-62
2021/03/27 10:07:37;;;;;;;1.88;1.77;;;26.20;26.80;;;;;;5044565;28;20118;-62
2021/03/27 10:10:43;;;;;;;2.58;2.38;;;26.10;26.70;;;;;;5045002;28;20080;-62
2021/03/27 10:13:36;;;;;;;1.88;1.77;;;26.10;26.90;;;;;;5043775;28;20053;-62
2021/03/27 10:16:23;;;;;;;2.35;1.90;;;26.10;26.80;;;;;;5029958;28;20045;-62
2021/03/27 10:19:25;;;;;;;2.03;1.92;;;26.10;26.80;;;;;;5044108;28;20137;-62
2021/03/27 10:22:15;;;;;;;2.25;2.05;;;26.10;26.90;;;;;;5043422;28;20152;-62
2021/03/27 10:25:11;;;;;;;1.90;1.80;;;26.10;26.90;;;;;;5044696;28;20457;-62
2021/03/27 10:28:11;;;;;;;2.30;1.85;;;26.10;26.90;;;;;;5044495;28;20049;-62
2021/03/27 10:30:55;;;;;;;1.70;1.60;;;26.10;27.00;;;;;;5026642;28;20095;-62
2021/03/27 10:33:43;;;;;;;1.38;1.30;;;26.10;27.00;;;;;;5044378;28;20071;-62
2021/03/27 10:36:40;;;;;;;4.75;2.72;;;26.10;27.00;;;;;;5043826;28;20048;-62
2021/03/27 10:39:29;;;;;;;2.17;1.98;;;26.10;27.00;;;;;;5044328;28;20049;-62
2021/03/27 10:42:29;;;;;;;1.77;1.67;;;26.10;27.00;;;;;;5044337;28;20048;-62
2021/03/27 10:45:25;;;;;;;1.60;1.50;;;26.00;27.00;;;;;;5029838;28;20083;-62
2021/03/27 10:48:19;;;;;;;1.95;1.58;;;26.10;27.00;;;;;;5030689;28;20506;-62
2021/03/27 10:51:14;;;;;;;3.03;1.65;;;26.10;27.10;;;;;;5026764;28;20518;-61
2021/03/27 10:54:00;;;;;;;1.95;1.83;;;26.10;27.10;;;;;;5043748;28;20144;-62
2021/03/27 10:56:57;;;;;;;2.28;1.92;;;26.00;27.10;;;;;;5044308;28;20375;-62
2021/03/27 11:00:01;;;;;;;1.80;1.70;;;26.10;27.20;;;;;;5044449;28;20428;-62
2021/03/27 11:03:07;;;;;;;1.58;1.48;;;26.10;27.20;;;;;;5036004;28;20107;-62
2021/03/27 11:06:14;;;;;;;1.75;1.65;;;26.10;27.20;;;;;;5048220;28;20084;-62
2021/03/27 11:09:20;;;;;;;1.70;1.60;;;26.00;27.10;;;;;;5048059;28;20049;-61
2021/03/27 11:12:26;;;;;;;1.88;1.77;;;26.00;27.20;;;;;;5047882;28;20106;-62
2021/03/27 11:15:33;;;;;;;1.52;1.42;;;26.00;27.20;;;;;;5047835;28;20102;-62
2021/03/27 11:18:32;;;;;;;2.05;1.95;;;26.00;27.20;;;;;;5047884;28;20072;-61
2021/03/27 11:21:31;;;;;;;1.90;1.67;;;26.00;27.20;;;;;;5047182;28;20049;-62
2021/03/27 11:24:25;;;;;;;1.63;1.52;;;26.00;27.30;;;;;;5046212;28;20080;-62
2021/03/27 11:27:20;;;;;;;2.17;2.00;;;26.00;27.30;;;;;;5047758;28;20049;-62
2021/03/27 11:30:04;;;;;;;1.67;1.58;;;26.00;27.40;;;;;;5047361;28;20128;-62
2021/03/27 11:32:55;;;;;;;1.67;1.48;;;26.00;27.40;;;;;;5047809;28;20141;-62
2021/03/27 11:35:40;;;;;;;1.77;1.67;;;26.00;27.40;;;;;;5047558;28;20357;-62
2021/03/27 11:38:30;;;;;;;1.83;1.73;;;26.00;27.30;;;;;;5048109;28;20048;-62
2021/03/27 11:41:32;;;;;;;1.77;1.67;;;26.00;27.40;;;;;;5047716;28;20132;-62
2021/03/27 11:44:26;;;;;;;2.35;1.42;;;26.00;27.40;;;;;;5047421;28;20512;-62
2021/03/27 11:46:57;;;;;;;1.60;1.50;;;26.00;27.50;;;;;;5029569;28;20456;-62
2021/03/27 11:49:47;;;;;;;1.77;1.65;;;26.00;27.40;;;;;;5047873;28;20060;-62
2021/03/27 11:52:23;;;;;;;1.50;1.40;;;26.00;27.40;;;;;;5034034;28;20045;-62
2021/03/27 11:55:22;;;;;;;3.08;1.48;;;26.00;27.50;;;;;;5047371;28;20055;-62
2021/03/27 11:58:21;;;;;;;1.63;1.52;;;26.00;27.40;;;;;;5047175;28;20525;-62
2021/03/27 12:01:07;;;;;;;1.57;1.50;;;26.00;27.40;;;;;;5047222;28;20037;-62
2021/03/27 12:04:13;;;;;;;1.50;1.40;;;26.00;27.50;;;;;;5046926;28;20282;-61
2021/03/27 12:07:13;;;;;;;1.50;1.40;;;25.90;27.40;;;;;;5034930;28;20558;-62
2021/03/27 12:10:01;;;;;;;1.35;1.30;;;26.00;27.50;;;;;;5046381;28;20484;-62
2021/03/27 12:12:51;;;;;;;1.50;1.40;;;26.00;27.60;;;;;;5045701;28;20413;-62
2021/03/27 12:15:52;;;;;;;1.27;1.10;;;26.00;27.60;;;;;;5046839;28;20076;-62
2021/03/27 12:18:52;;;;;;;2.05;1.60;;;26.00;27.60;;;;;;5034415;28;20055;-62
2021/03/27 12:21:25;;;;;;;1.60;1.50;;;26.00;27.60;;;;;;5046316;28;20087;-62
2021/03/27 12:24:19;;;;;;;1.80;1.70;;;26.00;27.60;;;;;;5046788;28;20052;-63
2021/03/27 12:27:14;;;;;;;1.55;1.45;;;26.00;27.60;;;;;;5046713;28;20077;-62
2021/03/27 12:29:44;;;;;;;1.40;1.30;;;26.00;27.60;;;;;;5046482;28;20048;-61
2021/03/27 12:32:43;;;;;;;1.60;1.50;;;26.00;27.60;;;;;;5047311;28;20044;-62
2021/03/27 12:35:36;;;;;;;1.30;1.20;;;26.00;27.50;;;;;;5045946;28;20133;-62
2021/03/27 12:38:34;;;;;;;2.03;1.92;;;26.10;27.60;;;;;;5031957;28;20555;-62
2021/03/27 12:41:10;;;;;;;1.30;1.30;;;26.00;27.60;;;;;;5045841;28;20083;-62
2021/03/27 12:43:49;;;;;;;2.05;1.40;;;26.10;27.70;;;;;;5046548;28;20110;-62
2021/03/27 12:46:54;;;;;;;2.57;1.90;;;26.00;27.60;;;;;;5046027;28;20048;-62
2021/03/27 12:49:49;;;;;;;1.60;1.50;;;26.10;27.50;;;;;;5046307;28;20599;-62
2021/03/27 12:52:56;;;;;;;1.73;1.48;;;26.10;27.50;;;;;;5043083;28;20410;-62
2021/03/27 12:55:38;;;;;;;1.40;1.30;;;26.10;27.50;;;;;;5044870;28;20055;-62
2021/03/27 12:58:45;;;;;;;1.73;1.63;;;26.10;27.60;;;;;;5045881;28;20063;-62
2021/03/27 13:01:40;;;;;;;1.40;1.30;;;26.10;27.70;;;;;;5046164;28;20099;-62
2021/03/27 13:04:32;;;;;;;1.50;1.40;;;26.10;27.70;;;;;;5046007;28;20053;-62
2021/03/27 13:07:13;;;;;;;1.63;1.52;;;26.10;27.70;;;;;;5045437;28;20072;-64
2021/03/27 13:10:15;;;;;;;1.55;1.45;;;26.00;27.70;;;;;;5045558;28;20253;-62
2021/03/27 13:13:04;;;;;;;2.88;1.77;;;26.00;27.70;;;;;;5045532;28;20119;-62
2021/03/27 13:15:58;;;;;;;1.35;1.35;;;26.10;27.70;;;;;;5044962;28;20045;-62
2021/03/27 13:18:44;;;;;;;1.70;1.60;;;26.00;27.70;;;;;;5032649;28;20087;-62
2021/03/27 13:21:20;;;;;;;1.55;1.45;;;26.00;27.80;;;;;;5045742;28;20080;-62
2021/03/27 13:24:12;;;;;;;1.52;1.42;;;26.00;27.80;;;;;;5044174;28;20156;-62
2021/03/27 13:26:40;;;;;;;1.42;1.33;;;26.00;27.80;;;;;;5047112;28;20457;-62
2021/03/27 13:29:33;;;;;;;1.80;1.67;;;26.00;27.80;;;;;;5047829;28;20106;-62
2021/03/27 13:32:21;;;;;;;1.70;1.60;;;26.00;27.90;;;;;;5030742;28;20102;-62
2021/03/27 13:35:21;;;;;;;1.40;1.30;;;26.00;27.80;;;;;;5044860;28;20128;-62
2021/03/27 13:38:03;;;;;;;1.42;1.33;;;26.00;27.80;;;;;;5046154;28;20044;-62
2021/03/27 13:40:33;;;;;;;1.50;1.40;;;26.00;27.80;;;;;;5045068;28;20114;-62
2021/03/27 13:43:30;;;;;;;1.50;1.40;;;26.00;28.00;;;;;;5045276;28;20081;-62
2021/03/27 13:46:05;;;;;;;1.30;1.20;;;26.00;27.80;;;;;;5044849;28;20306;-62
2021/03/27 13:48:58;;;;;;;1.60;1.50;;;26.00;27.80;;;;;;5044601;28;20055;-62
2021/03/27 13:51:51;;;;;;;2.50;1.50;;;26.00;27.80;;;;;;5044306;28;20645;-62
2021/03/27 13:54:47;;;;;;;1.58;1.48;;;26.00;27.80;;;;;;5045094;28;20076;-62
2021/03/27 13:57:41;;;;;;;1.60;1.50;;;26.00;27.90;;;;;;5044020;28;20098;-62
2021/03/27 14:00:29;;;;;;;1.75;1.65;;;26.00;27.90;;;;;;5044382;28;20474;-62
2021/03/27 14:03:05;;;;;;;1.38;1.27;;;26.00;27.90;;;;;;5045309;28;20124;-62
2021/03/27 14:06:01;;;;;;;1.58;1.50;;;26.00;27.90;;;;;;5044567;28;20506;-62
2021/03/27 14:08:45;;;;;;;1.65;1.55;;;26.00;27.90;;;;;;5044798;28;20148;-62
2021/03/27 14:11:25;;;;;;;1.30;1.30;;;26.00;27.90;;;;;;5044489;28;20148;-62
2021/03/27 14:14:02;;;;;;;1.40;1.30;;;26.00;27.90;;;;;;5044812;28;20138;-62
2021/03/27 14:16:55;;;;;;;1.58;1.48;;;26.00;27.90;;;;;;5027237;28;20081;-62
2021/03/27 14:19:44;;;;;;;1.50;1.33;;;26.00;27.90;;;;;;5044495;28;20482;-64
2021/03/27 14:22:36;;;;;;;1.55;1.45;;;26.00;27.90;;;;;;5044276;28;20580;-65
2021/03/27 14:25:24;;;;;;;1.70;1.60;;;26.00;28.00;;;;;;5044514;28;20045;-62
2021/03/27 14:28:27;;;;;;;1.63;1.52;;;26.00;28.00;;;;;;5044862;28;20067;-62
2021/03/27 14:31:24;;;;;;;1.73;1.63;;;26.00;28.00;;;;;;5044614;28;20045;-62
2021/03/27 14:34:19;;;;;;;1.73;1.63;;;26.00;27.90;;;;;;5044708;28;20520;-62
2021/03/27 14:37:17;;;;;;;1.60;1.50;;;26.00;27.90;;;;;;5034492;28;20152;-62
2021/03/27 14:40:13;;;;;;;1.50;1.40;;;26.00;27.90;;;;;;5048989;28;20099;-62
2021/03/27 14:43:06;;;;;;;1.98;1.20;;;26.00;27.90;;;;;;5048527;28;20479;-62
2021/03/27 14:46:12;;;;;;;1.50;1.40;;;26.00;27.90;;;;;;5048680;28;20517;-62
2021/03/27 14:49:06;;;;;;;1.50;1.42;;;26.00;28.00;;;;;;5048115;28;20255;-62
2021/03/27 14:51:53;;;;;;;1.80;1.70;;;26.00;28.00;;;;;;5048550;28;20053;-62